createdAt,value
2022-09-09T00:00:07.537Z,0.60
2022-09-09T00:00:18.290Z,0.60
2022-09-09T00:00:30.070Z,0.70
2022-09-09T00:00:42.537Z,0.60
2022-09-09T00:00:54.379Z,0.60
2022-09-09T00:01:06.858Z,0.50
2022-09-09T00:01:17.682Z,0.50
2022-09-09T00:01:28.509Z,0.60
2022-09-09T00:01:39.318Z,0.60
2022-09-09T00:01:52.549Z,0.60
2022-09-09T00:02:04.274Z,0.60
2022-09-09T00:02:16.390Z,0.60
2022-09-09T00:02:27.345Z,0.60
2022-09-09T00:02:39.929Z,0.50
2022-09-09T00:02:52.511Z,0.50
2022-09-09T00:03:05.379Z,0.40
2022-09-09T00:03:16.321Z,0.50
2022-09-09T00:03:29.681Z,0.50
2022-09-09T00:03:42.530Z,0.50
2022-09-09T00:03:53.388Z,0.40
2022-09-09T00:04:05.109Z,0.30
2022-09-09T00:04:15.858Z,0.40
2022-09-09T00:04:26.640Z,0.60
2022-09-09T00:04:37.412Z,0.60
2022-09-09T00:04:48.179Z,0.80
2022-09-09T00:04:58.989Z,0.70
2022-09-09T00:05:11.179Z,0.70
2022-09-09T00:05:22.869Z,0.70
2022-09-09T00:05:34.619Z,0.70
2022-09-09T00:05:45.380Z,0.50
2022-09-09T00:05:57.186Z,0.70
2022-09-09T00:06:07.919Z,0.70
2022-09-09T00:06:19.632Z,0.60
2022-09-09T00:06:32.339Z,0.30
2022-09-09T00:06:44.061Z,0.40
2022-09-09T00:06:57.541Z,0.50
2022-09-09T00:07:08.279Z,0.60
2022-09-09T00:07:20.021Z,0.70
2022-09-09T00:07:31.769Z,0.80
2022-09-09T00:07:43.510Z,0.60
2022-09-09T00:07:55.260Z,0.70
2022-09-09T00:08:07.034Z,0.70
2022-09-09T00:08:18.763Z,0.60
2022-09-09T00:08:30.530Z,0.50
2022-09-09T00:08:42.951Z,0.50
2022-09-09T00:08:54.693Z,0.60
2022-09-09T00:09:07.141Z,0.70
2022-09-09T00:09:17.890Z,0.70
2022-09-09T00:09:29.662Z,0.60
2022-09-09T00:09:41.411Z,0.50
2022-09-09T00:09:52.189Z,0.40
2022-09-09T00:10:03.020Z,0.40
2022-09-09T00:10:13.821Z,0.50
2022-09-09T00:10:24.564Z,0.50
2022-09-09T00:10:36.284Z,0.50
2022-09-09T00:10:48.471Z,0.80
2022-09-09T00:10:59.241Z,0.80
2022-09-09T00:11:10.059Z,0.90
2022-09-09T00:11:20.810Z,0.80
2022-09-09T00:11:31.715Z,0.60
2022-09-09T00:11:43.452Z,0.60
2022-09-09T00:11:54.220Z,0.60
2022-09-09T00:12:05.901Z,0.80
2022-09-09T00:12:17.682Z,0.70
2022-09-09T00:12:29.374Z,0.50
2022-09-09T00:12:40.153Z,0.40
2022-09-09T00:12:50.892Z,0.50
2022-09-09T00:13:02.682Z,0.50
2022-09-09T00:13:15.116Z,0.50
2022-09-09T00:13:25.862Z,0.50
2022-09-09T00:13:36.645Z,0.60
2022-09-09T00:13:49.062Z,0.60
2022-09-09T00:14:01.303Z,0.50
2022-09-09T00:14:12.072Z,0.40
2022-09-09T00:14:24.550Z,0.40
2022-09-09T00:14:35.322Z,0.40
2022-09-09T00:14:46.072Z,0.60
2022-09-09T00:14:56.823Z,0.60
2022-09-09T00:15:07.603Z,0.70
2022-09-09T00:15:18.374Z,0.90
2022-09-09T00:15:29.202Z,0.90
2022-09-09T00:15:40.978Z,0.80
2022-09-09T00:15:51.765Z,0.60
2022-09-09T00:16:03.506Z,0.40
2022-09-09T00:16:14.306Z,0.50
2022-09-09T00:16:25.215Z,0.70
2022-09-09T00:16:35.994Z,0.70
2022-09-09T00:16:49.194Z,0.70
2022-09-09T00:16:59.994Z,0.70
2022-09-09T00:17:10.824Z,0.80
2022-09-09T00:17:21.614Z,0.70
2022-09-09T00:17:32.376Z,0.70
2022-09-09T00:17:43.132Z,0.60
2022-09-09T00:17:56.349Z,0.70
2022-09-09T00:18:07.153Z,0.80
2022-09-09T00:18:17.936Z,0.70
2022-09-09T00:18:28.756Z,0.60
2022-09-09T00:18:41.195Z,0.60
2022-09-09T00:18:53.644Z,0.70
2022-09-09T00:19:05.434Z,0.60
2022-09-09T00:19:18.375Z,0.60
2022-09-09T00:19:29.123Z,0.60
2022-09-09T00:19:39.854Z,0.60
2022-09-09T00:19:50.635Z,0.60
2022-09-09T00:20:01.432Z,0.50
2022-09-09T00:20:12.224Z,0.50
2022-09-09T00:20:23.014Z,0.40
2022-09-09T00:20:33.819Z,0.40
2022-09-09T00:20:44.573Z,0.60
2022-09-09T00:20:56.256Z,0.50
2022-09-09T00:21:07.085Z,0.60
2022-09-09T00:21:17.816Z,0.60
2022-09-09T00:21:29.608Z,0.80
2022-09-09T00:21:40.365Z,0.80
2022-09-09T00:21:53.116Z,0.80
2022-09-09T00:22:03.925Z,0.60
2022-09-09T00:22:14.706Z,0.50
2022-09-09T00:22:25.452Z,0.60
2022-09-09T00:22:36.184Z,0.60
2022-09-09T00:22:48.406Z,0.60
2022-09-09T00:22:59.158Z,0.60
2022-09-09T00:23:11.628Z,0.60
2022-09-09T00:23:23.350Z,0.60
2022-09-09T00:23:34.085Z,0.50
2022-09-09T00:23:44.846Z,0.50
2022-09-09T00:23:57.045Z,0.50
2022-09-09T00:24:11.245Z,0.50
2022-09-09T00:24:23.697Z,0.60
2022-09-09T00:24:34.477Z,0.60
2022-09-09T00:24:46.946Z,0.80
2022-09-09T00:24:57.687Z,0.60
2022-09-09T00:25:09.497Z,0.60
2022-09-09T00:25:20.257Z,0.50
2022-09-09T00:25:30.996Z,0.60
2022-09-09T00:25:44.196Z,0.40
2022-09-09T00:25:55.907Z,0.60
2022-09-09T00:26:08.630Z,0.70
2022-09-09T00:26:19.381Z,0.50
2022-09-09T00:26:32.631Z,0.40
2022-09-09T00:26:44.337Z,0.50
2022-09-09T00:26:55.078Z,0.50
2022-09-09T00:27:06.805Z,0.50
2022-09-09T00:27:17.637Z,0.50
2022-09-09T00:27:29.327Z,0.50
2022-09-09T00:27:41.800Z,0.60
2022-09-09T00:27:54.249Z,0.60
2022-09-09T00:28:07.688Z,0.40
2022-09-09T00:28:20.430Z,0.40
2022-09-09T00:28:32.697Z,0.50
2022-09-09T00:28:43.511Z,0.60
2022-09-09T00:28:54.257Z,0.50
2022-09-09T00:29:06.008Z,0.50
2022-09-09T00:29:18.720Z,0.40
2022-09-09T00:29:30.210Z,0.50
2022-09-09T00:29:40.968Z,0.50
2022-09-09T00:29:52.662Z,0.60
2022-09-09T00:30:04.868Z,0.50
2022-09-09T00:30:15.615Z,0.70
2022-09-09T00:30:26.367Z,0.70
2022-09-09T00:30:38.619Z,0.80
2022-09-09T00:30:49.429Z,0.70
2022-09-09T00:31:01.188Z,0.70
2022-09-09T00:31:14.228Z,0.70
2022-09-09T00:31:25.023Z,0.60
2022-09-09T00:31:37.479Z,0.40
2022-09-09T00:31:48.249Z,0.50
2022-09-09T00:31:59.029Z,0.40
2022-09-09T00:32:10.837Z,0.40
2022-09-09T00:32:23.314Z,0.50
2022-09-09T00:32:35.029Z,0.70
2022-09-09T00:32:45.798Z,0.80
2022-09-09T00:32:56.570Z,0.60
2022-09-09T00:33:12.021Z,0.60
2022-09-09T00:33:26.339Z,0.60
2022-09-09T00:33:37.118Z,0.60
2022-09-09T00:33:47.892Z,0.60
2022-09-09T00:33:58.640Z,0.50
2022-09-09T00:34:11.900Z,0.50
2022-09-09T00:34:23.590Z,0.60
2022-09-09T00:34:35.313Z,0.70
2022-09-09T00:34:48.229Z,0.80
2022-09-09T00:34:59.968Z,0.70
2022-09-09T00:35:10.741Z,0.70
2022-09-09T00:35:21.499Z,0.60
2022-09-09T00:35:32.256Z,0.60
2022-09-09T00:35:42.999Z,0.50
2022-09-09T00:35:55.430Z,0.60
2022-09-09T00:36:07.151Z,0.60
2022-09-09T00:36:17.910Z,0.60
2022-09-09T00:36:29.610Z,0.60
2022-09-09T00:36:41.322Z,0.60
2022-09-09T00:36:52.109Z,0.60
2022-09-09T00:37:02.852Z,0.70
2022-09-09T00:37:14.560Z,0.60
2022-09-09T00:37:25.329Z,0.60
2022-09-09T00:37:36.135Z,0.60
2022-09-09T00:37:46.861Z,0.60
2022-09-09T00:37:59.301Z,0.60
2022-09-09T00:38:11.752Z,0.50
2022-09-09T00:38:22.501Z,0.50
2022-09-09T00:38:34.575Z,0.60
2022-09-09T00:38:47.992Z,0.80
2022-09-09T00:38:58.740Z,0.80
2022-09-09T00:39:10.442Z,0.70
2022-09-09T00:39:21.182Z,0.60
2022-09-09T00:39:32.979Z,0.60
2022-09-09T00:39:43.784Z,0.60
2022-09-09T00:39:54.597Z,0.60
2022-09-09T00:40:07.047Z,0.80
2022-09-09T00:40:18.768Z,0.90
2022-09-09T00:40:31.209Z,0.90
2022-09-09T00:40:41.976Z,0.70
2022-09-09T00:40:52.731Z,0.50
2022-09-09T00:41:03.463Z,0.50
2022-09-09T00:41:15.913Z,0.50
2022-09-09T00:41:26.682Z,0.60
2022-09-09T00:41:37.422Z,0.80
2022-09-09T00:41:48.152Z,0.70
2022-09-09T00:41:58.903Z,0.60
2022-09-09T00:42:11.346Z,0.50
2022-09-09T00:42:23.782Z,0.50
2022-09-09T00:42:35.510Z,0.50
2022-09-09T00:42:47.732Z,0.50
2022-09-09T00:42:58.512Z,0.50
2022-09-09T00:43:11.243Z,0.40
2022-09-09T00:43:22.964Z,0.40
2022-09-09T00:43:34.681Z,0.60
2022-09-09T00:43:45.422Z,0.70
2022-09-09T00:43:56.222Z,0.50
2022-09-09T00:44:07.942Z,0.60
2022-09-09T00:44:19.433Z,0.70
2022-09-09T00:44:30.174Z,0.70
2022-09-09T00:44:40.913Z,0.70
2022-09-09T00:44:54.113Z,0.70
2022-09-09T00:45:06.564Z,0.70
2022-09-09T00:45:19.802Z,0.70
2022-09-09T00:45:30.542Z,0.70
2022-09-09T00:45:41.363Z,0.60
2022-09-09T00:45:52.153Z,0.60
2022-09-09T00:46:03.861Z,0.50
2022-09-09T00:46:15.639Z,0.70
2022-09-09T00:46:26.519Z,0.70
2022-09-09T00:46:37.321Z,0.50
2022-09-09T00:46:49.764Z,0.60
2022-09-09T00:47:02.250Z,0.70
2022-09-09T00:47:13.002Z,0.70
2022-09-09T00:47:25.415Z,0.50
2022-09-09T00:47:36.146Z,0.50
2022-09-09T00:47:48.585Z,0.60
2022-09-09T00:47:59.337Z,0.70
2022-09-09T00:48:12.555Z,0.60
2022-09-09T00:48:25.754Z,0.70
2022-09-09T00:48:36.556Z,0.70
2022-09-09T00:48:49.795Z,0.80
2022-09-09T00:49:03.577Z,0.60
2022-09-09T00:49:16.805Z,0.50
2022-09-09T00:49:29.254Z,0.40
2022-09-09T00:49:40.957Z,0.30
2022-09-09T00:49:51.704Z,0.30
2022-09-09T00:50:02.494Z,0.50
2022-09-09T00:50:13.235Z,0.50
2022-09-09T00:50:25.668Z,0.50
2022-09-09T00:50:37.426Z,0.50
2022-09-09T00:50:50.444Z,0.70
2022-09-09T00:51:01.172Z,0.80
2022-09-09T00:51:14.866Z,0.70
2022-09-09T00:51:25.644Z,0.50
2022-09-09T00:51:36.416Z,0.40
2022-09-09T00:51:47.197Z,0.30
2022-09-09T00:51:59.656Z,0.40
2022-09-09T00:52:11.869Z,0.30
2022-09-09T00:52:23.588Z,0.50
2022-09-09T00:52:35.335Z,0.70
2022-09-09T00:52:47.816Z,0.80
2022-09-09T00:52:58.558Z,0.70
2022-09-09T00:53:10.766Z,0.90
2022-09-09T00:53:23.235Z,0.80
2022-09-09T00:53:34.957Z,0.80
2022-09-09T00:53:47.396Z,0.80
2022-09-09T00:53:59.126Z,0.70
2022-09-09T00:54:09.902Z,0.70
2022-09-09T00:54:20.666Z,0.60
2022-09-09T00:54:32.876Z,0.90
2022-09-09T00:54:44.606Z,1.00
2022-09-09T00:54:56.346Z,0.60
2022-09-09T00:55:08.547Z,0.70
2022-09-09T00:55:19.355Z,0.50
2022-09-09T00:55:31.749Z,0.70
2022-09-09T00:55:42.486Z,0.90
2022-09-09T00:55:54.176Z,0.90
2022-09-09T00:56:05.157Z,0.80
2022-09-09T00:56:15.908Z,0.60
2022-09-09T00:56:26.673Z,0.60
2022-09-09T00:56:39.077Z,0.80
2022-09-09T00:56:51.287Z,0.70
2022-09-09T00:57:02.070Z,0.80
2022-09-09T00:57:12.826Z,0.70
2022-09-09T00:57:23.577Z,0.70
2022-09-09T00:57:35.410Z,0.50
2022-09-09T00:57:46.157Z,0.60
2022-09-09T00:57:57.858Z,0.60
2022-09-09T00:58:10.571Z,0.70
2022-09-09T00:58:23.020Z,0.60
2022-09-09T00:58:33.836Z,0.90
2022-09-09T00:58:48.097Z,0.90
2022-09-09T00:58:58.896Z,0.70
2022-09-09T00:59:09.700Z,0.80
2022-09-09T00:59:26.583Z,0.80
2022-09-09T00:59:39.569Z,0.50
2022-09-09T00:59:51.288Z,0.50
2022-09-09T01:00:02.081Z,0.50
2022-09-09T01:00:12.841Z,0.50
2022-09-09T01:00:23.599Z,0.60
2022-09-09T01:00:36.039Z,0.50
2022-09-09T01:00:46.808Z,0.50
2022-09-09T01:00:58.497Z,0.50
2022-09-09T01:01:10.304Z,0.60
2022-09-09T01:01:23.582Z,0.60
2022-09-09T01:01:36.396Z,0.70
2022-09-09T01:01:47.307Z,0.60
2022-09-09T01:01:58.196Z,0.70
2022-09-09T01:02:09.090Z,0.60
2022-09-09T01:02:19.838Z,0.60
2022-09-09T01:02:31.631Z,0.60
2022-09-09T01:02:42.426Z,0.80
2022-09-09T01:02:53.258Z,0.80
2022-09-09T01:03:05.736Z,0.70
2022-09-09T01:03:18.181Z,0.60
2022-09-09T01:03:28.930Z,0.50
2022-09-09T01:03:41.379Z,0.60
2022-09-09T01:03:52.141Z,0.60
2022-09-09T01:04:04.611Z,0.50
2022-09-09T01:04:15.418Z,0.50
2022-09-09T01:04:27.130Z,0.60
2022-09-09T01:04:38.824Z,0.60
2022-09-09T01:04:52.031Z,0.60
2022-09-09T01:05:03.730Z,0.60
2022-09-09T01:05:14.489Z,0.80
2022-09-09T01:05:26.951Z,0.70
2022-09-09T01:05:38.890Z,0.60
2022-09-09T01:05:49.639Z,0.60
2022-09-09T01:06:00.379Z,0.70
2022-09-09T01:06:11.130Z,0.60
2022-09-09T01:06:21.929Z,0.50
2022-09-09T01:06:33.651Z,0.50
2022-09-09T01:06:44.422Z,0.60
2022-09-09T01:06:56.839Z,0.60
2022-09-09T01:07:09.321Z,0.50
2022-09-09T01:07:21.771Z,0.60
2022-09-09T01:07:32.601Z,0.60
2022-09-09T01:07:43.401Z,0.70
2022-09-09T01:07:58.369Z,0.70
2022-09-09T01:08:09.292Z,0.70
2022-09-09T01:08:20.063Z,0.50
2022-09-09T01:08:32.310Z,0.60
2022-09-09T01:08:43.031Z,0.60
2022-09-09T01:08:53.781Z,0.60
2022-09-09T01:09:06.010Z,0.90
2022-09-09T01:09:16.761Z,0.90
2022-09-09T01:09:28.461Z,0.90
2022-09-09T01:09:41.671Z,0.90
2022-09-09T01:09:52.422Z,0.60
2022-09-09T01:10:04.181Z,0.50
2022-09-09T01:10:17.381Z,0.50
2022-09-09T01:10:28.152Z,0.70
2022-09-09T01:10:41.909Z,0.60
2022-09-09T01:10:54.382Z,0.60
2022-09-09T01:11:05.113Z,0.50
2022-09-09T01:11:15.881Z,0.40
2022-09-09T01:11:29.095Z,0.60
2022-09-09T01:11:39.860Z,0.60
2022-09-09T01:11:50.612Z,0.60
2022-09-09T01:12:02.365Z,0.60
2022-09-09T01:12:13.165Z,0.60
2022-09-09T01:12:23.933Z,0.70
2022-09-09T01:12:35.682Z,0.60
2022-09-09T01:12:48.135Z,0.70
2022-09-09T01:12:58.882Z,0.70
2022-09-09T01:13:11.132Z,0.50
2022-09-09T01:13:21.870Z,0.60
2022-09-09T01:13:32.643Z,0.50
2022-09-09T01:13:43.410Z,0.70
2022-09-09T01:13:54.183Z,0.70
2022-09-09T01:14:06.668Z,0.60
2022-09-09T01:14:19.113Z,0.60
2022-09-09T01:14:29.873Z,0.60
2022-09-09T01:14:40.606Z,0.70
2022-09-09T01:14:51.373Z,0.80
2022-09-09T01:15:03.784Z,0.60
2022-09-09T01:15:15.973Z,0.50
2022-09-09T01:15:26.764Z,0.60
2022-09-09T01:15:39.217Z,0.70
2022-09-09T01:15:50.913Z,0.40
2022-09-09T01:16:02.125Z,0.60
2022-09-09T01:16:13.025Z,0.60
2022-09-09T01:16:23.822Z,0.70
2022-09-09T01:16:34.588Z,0.60
2022-09-09T01:16:45.364Z,0.80
2022-09-09T01:16:56.150Z,0.80
2022-09-09T01:17:08.584Z,0.80
2022-09-09T01:17:22.484Z,0.70
2022-09-09T01:17:33.284Z,0.70
2022-09-09T01:17:44.994Z,0.80
2022-09-09T01:17:56.715Z,0.60
2022-09-09T01:18:08.480Z,0.50
2022-09-09T01:18:22.184Z,0.50
2022-09-09T01:18:34.165Z,0.60
2022-09-09T01:18:45.144Z,0.70
2022-09-09T01:18:55.954Z,1.00
2022-09-09T01:19:07.621Z,0.90
2022-09-09T01:19:20.824Z,0.80
2022-09-09T01:19:32.525Z,0.60
2022-09-09T01:19:44.294Z,0.50
2022-09-09T01:19:57.485Z,0.60
2022-09-09T01:20:09.195Z,0.70
2022-09-09T01:20:20.924Z,0.60
2022-09-09T01:20:33.635Z,0.40
2022-09-09T01:20:45.168Z,0.50
2022-09-09T01:20:55.935Z,0.50
2022-09-09T01:21:07.665Z,0.50
2022-09-09T01:21:19.386Z,0.60
2022-09-09T01:21:30.117Z,0.60
2022-09-09T01:21:41.879Z,0.60
2022-09-09T01:21:54.066Z,0.70
2022-09-09T01:22:04.855Z,0.90
2022-09-09T01:22:17.376Z,0.80
2022-09-09T01:22:29.597Z,0.70
2022-09-09T01:22:41.917Z,0.60
2022-09-09T01:22:54.346Z,0.60
2022-09-09T01:23:06.789Z,0.50
2022-09-09T01:23:17.585Z,0.40
2022-09-09T01:23:28.326Z,0.50
2022-09-09T01:23:39.106Z,0.60
2022-09-09T01:23:51.806Z,0.60
2022-09-09T01:24:02.579Z,0.70
2022-09-09T01:24:13.346Z,0.80
2022-09-09T01:24:24.085Z,0.90
2022-09-09T01:24:35.808Z,0.70
2022-09-09T01:24:46.575Z,0.60
2022-09-09T01:24:57.316Z,0.50
2022-09-09T01:25:08.046Z,0.50
2022-09-09T01:25:18.882Z,0.50
2022-09-09T01:25:29.619Z,0.40
2022-09-09T01:25:42.055Z,0.40
2022-09-09T01:25:53.796Z,0.40
2022-09-09T01:26:06.419Z,0.60
2022-09-09T01:26:19.127Z,0.60
2022-09-09T01:26:29.876Z,0.60
2022-09-09T01:26:42.580Z,0.70
2022-09-09T01:26:54.278Z,0.90
2022-09-09T01:27:05.979Z,1.10
2022-09-09T01:27:18.410Z,0.90
2022-09-09T01:27:30.918Z,0.60
2022-09-09T01:27:43.367Z,0.60
2022-09-09T01:27:55.088Z,0.60
2022-09-09T01:28:05.879Z,0.60
2022-09-09T01:28:16.679Z,0.50
2022-09-09T01:28:27.456Z,0.40
2022-09-09T01:28:38.230Z,0.50
2022-09-09T01:28:48.966Z,0.60
2022-09-09T01:29:02.158Z,0.80
2022-09-09T01:29:14.743Z,0.80
2022-09-09T01:29:26.440Z,0.70
2022-09-09T01:29:38.890Z,0.60
2022-09-09T01:29:51.317Z,0.40
2022-09-09T01:30:02.087Z,0.50
2022-09-09T01:30:13.809Z,0.60
2022-09-09T01:30:24.629Z,0.70
2022-09-09T01:30:37.099Z,0.80
2022-09-09T01:30:47.900Z,0.80
2022-09-09T01:30:58.740Z,0.80
2022-09-09T01:31:10.519Z,0.80
2022-09-09T01:31:23.251Z,0.60
2022-09-09T01:31:34.218Z,0.70
2022-09-09T01:31:45.899Z,0.60
2022-09-09T01:31:56.667Z,0.60
2022-09-09T01:32:09.608Z,0.60
2022-09-09T01:32:22.019Z,0.80
2022-09-09T01:32:33.749Z,0.70
2022-09-09T01:32:45.962Z,0.60
2022-09-09T01:32:57.669Z,0.60
2022-09-09T01:33:10.119Z,0.60
2022-09-09T01:33:22.070Z,0.70
2022-09-09T01:33:32.821Z,0.90
2022-09-09T01:33:43.560Z,1.00
2022-09-09T01:33:54.351Z,0.70
2022-09-09T01:34:08.082Z,0.50
2022-09-09T01:34:18.839Z,0.50
2022-09-09T01:34:29.610Z,0.60
2022-09-09T01:34:40.391Z,0.70
2022-09-09T01:34:51.130Z,0.70
2022-09-09T01:35:01.878Z,0.70
2022-09-09T01:35:14.342Z,0.80
2022-09-09T01:35:26.765Z,0.80
2022-09-09T01:35:40.520Z,0.60
2022-09-09T01:35:52.230Z,0.60
2022-09-09T01:36:02.972Z,0.70
2022-09-09T01:36:14.922Z,0.80
2022-09-09T01:36:25.668Z,0.80
2022-09-09T01:36:37.399Z,0.70
2022-09-09T01:36:48.130Z,0.70
2022-09-09T01:36:58.861Z,0.50
2022-09-09T01:37:09.620Z,0.50
2022-09-09T01:37:20.480Z,0.50
2022-09-09T01:37:32.211Z,0.50
2022-09-09T01:37:42.940Z,0.60
2022-09-09T01:37:53.720Z,0.60
2022-09-09T01:38:06.214Z,0.70
2022-09-09T01:38:16.982Z,0.70
2022-09-09T01:38:30.691Z,0.60
2022-09-09T01:38:41.471Z,0.60
2022-09-09T01:38:53.671Z,0.40
2022-09-09T01:39:06.880Z,0.50
2022-09-09T01:39:17.661Z,0.40
2022-09-09T01:39:29.495Z,0.40
2022-09-09T01:39:41.313Z,0.60
2022-09-09T01:39:53.679Z,0.70
2022-09-09T01:40:05.822Z,0.70
2022-09-09T01:40:17.581Z,0.70
2022-09-09T01:40:28.393Z,0.60
2022-09-09T01:40:40.105Z,0.80
2022-09-09T01:40:50.863Z,0.90
2022-09-09T01:41:03.842Z,0.60
2022-09-09T01:41:16.042Z,0.70
2022-09-09T01:41:27.755Z,0.80
2022-09-09T01:41:40.002Z,0.70
2022-09-09T01:41:52.272Z,0.60
2022-09-09T01:42:03.033Z,0.70
2022-09-09T01:42:13.822Z,0.70
2022-09-09T01:42:24.596Z,0.70
2022-09-09T01:42:35.603Z,0.70
2022-09-09T01:42:47.302Z,0.70
2022-09-09T01:42:58.052Z,0.60
2022-09-09T01:43:10.164Z,0.60
2022-09-09T01:43:20.922Z,0.70
2022-09-09T01:43:31.663Z,0.60
2022-09-09T01:43:42.683Z,0.60
2022-09-09T01:43:54.882Z,0.70
2022-09-09T01:44:05.652Z,0.80
2022-09-09T01:44:18.865Z,0.70
2022-09-09T01:44:29.641Z,0.70
2022-09-09T01:44:40.414Z,0.70
2022-09-09T01:44:51.173Z,0.70
2022-09-09T01:45:01.915Z,0.60
2022-09-09T01:45:12.723Z,0.50
2022-09-09T01:45:23.452Z,0.50
2022-09-09T01:45:34.233Z,0.70
2022-09-09T01:45:45.090Z,0.70
2022-09-09T01:45:55.892Z,0.60
2022-09-09T01:46:08.350Z,0.60
2022-09-09T01:46:19.184Z,0.50
2022-09-09T01:46:32.385Z,0.50
2022-09-09T01:46:43.151Z,0.60
2022-09-09T01:46:55.348Z,0.60
2022-09-09T01:47:06.124Z,0.70
2022-09-09T01:47:18.565Z,0.90
2022-09-09T01:47:30.055Z,0.90
2022-09-09T01:47:41.774Z,0.90
2022-09-09T01:47:52.542Z,0.80
2022-09-09T01:48:04.267Z,0.70
2022-09-09T01:48:17.255Z,0.50
2022-09-09T01:48:30.022Z,0.60
2022-09-09T01:48:40.744Z,0.70
2022-09-09T01:48:51.514Z,0.70
2022-09-09T01:49:03.244Z,0.60
2022-09-09T01:49:15.444Z,0.60
2022-09-09T01:49:27.158Z,0.50
2022-09-09T01:49:38.894Z,0.60
2022-09-09T01:49:49.675Z,0.50
2022-09-09T01:50:01.397Z,0.60
2022-09-09T01:50:13.586Z,0.70
2022-09-09T01:50:26.145Z,0.70
2022-09-09T01:50:38.604Z,0.60
2022-09-09T01:50:49.352Z,0.70
2022-09-09T01:51:01.548Z,0.60
2022-09-09T01:51:12.303Z,0.70
2022-09-09T01:51:24.743Z,0.70
2022-09-09T01:51:36.435Z,0.70
2022-09-09T01:51:47.176Z,0.70
2022-09-09T01:51:57.905Z,0.60
2022-09-09T01:52:11.112Z,0.60
2022-09-09T01:52:21.955Z,0.60
2022-09-09T01:52:32.970Z,0.70
2022-09-09T01:52:45.447Z,0.60
2022-09-09T01:52:57.168Z,0.70
2022-09-09T01:53:07.928Z,0.70
2022-09-09T01:53:20.139Z,0.50
2022-09-09T01:53:31.836Z,0.60
2022-09-09T01:53:43.569Z,0.70
2022-09-09T01:53:55.977Z,0.70
2022-09-09T01:54:07.687Z,0.50
2022-09-09T01:54:20.180Z,0.50
2022-09-09T01:54:30.946Z,0.60
2022-09-09T01:54:43.157Z,0.60
2022-09-09T01:54:54.868Z,0.60
2022-09-09T01:55:05.646Z,0.60
2022-09-09T01:55:18.567Z,0.80
2022-09-09T01:55:29.336Z,0.80
2022-09-09T01:55:41.027Z,0.90
2022-09-09T01:55:51.817Z,0.80
2022-09-09T01:56:02.608Z,0.80
2022-09-09T01:56:13.377Z,0.60
2022-09-09T01:56:25.827Z,0.60
2022-09-09T01:56:36.607Z,0.60
2022-09-09T01:56:47.357Z,0.70
2022-09-09T01:56:58.087Z,0.70
2022-09-09T01:57:08.877Z,0.70
2022-09-09T01:57:19.637Z,0.70
2022-09-09T01:57:32.618Z,0.70
2022-09-09T01:57:44.358Z,0.60
2022-09-09T01:57:55.127Z,0.40
2022-09-09T01:58:05.927Z,0.50
2022-09-09T01:58:18.380Z,0.60
2022-09-09T01:58:29.226Z,0.70
2022-09-09T01:58:40.971Z,1.00
2022-09-09T01:58:51.759Z,0.90
2022-09-09T01:59:04.168Z,0.90
2022-09-09T01:59:15.949Z,0.60
2022-09-09T01:59:26.699Z,0.60
2022-09-09T01:59:39.909Z,0.80
2022-09-09T01:59:50.669Z,0.70
2022-09-09T02:00:01.500Z,0.40
2022-09-09T02:00:12.257Z,0.60
2022-09-09T02:00:24.685Z,0.90
2022-09-09T02:00:37.128Z,1.10
2022-09-09T02:00:48.922Z,0.90
2022-09-09T02:01:01.976Z,0.70
2022-09-09T02:01:14.470Z,0.60
2022-09-09T02:01:26.238Z,0.50
2022-09-09T02:01:39.535Z,0.60
2022-09-09T02:01:51.969Z,0.70
2022-09-09T02:02:02.828Z,0.70
2022-09-09T02:02:13.612Z,0.50
2022-09-09T02:02:25.371Z,0.50
2022-09-09T02:02:37.836Z,0.60
2022-09-09T02:02:49.649Z,0.70
2022-09-09T02:03:02.833Z,0.70
2022-09-09T02:03:13.619Z,0.60
2022-09-09T02:03:25.819Z,0.70
2022-09-09T02:03:36.563Z,0.70
2022-09-09T02:03:47.299Z,0.60
2022-09-09T02:03:58.029Z,0.70
2022-09-09T02:04:10.751Z,0.70
2022-09-09T02:04:21.498Z,0.90
2022-09-09T02:04:33.965Z,0.80
2022-09-09T02:04:44.719Z,0.80
2022-09-09T02:04:56.452Z,0.60
2022-09-09T02:05:08.151Z,0.60
2022-09-09T02:05:22.374Z,0.70
2022-09-09T02:05:33.110Z,0.70
2022-09-09T02:05:44.820Z,0.50
2022-09-09T02:05:56.555Z,0.60
2022-09-09T02:06:09.001Z,0.50
2022-09-09T02:06:19.780Z,0.50
2022-09-09T02:06:30.531Z,0.50
2022-09-09T02:06:41.290Z,0.50
2022-09-09T02:06:52.050Z,0.60
2022-09-09T02:07:02.791Z,0.90
2022-09-09T02:07:15.740Z,0.80
2022-09-09T02:07:27.440Z,0.80
2022-09-09T02:07:38.181Z,0.60
2022-09-09T02:07:48.929Z,0.80
2022-09-09T02:08:00.640Z,0.80
2022-09-09T02:08:11.393Z,0.90
2022-09-09T02:08:23.880Z,0.60
2022-09-09T02:08:35.671Z,0.50
2022-09-09T02:08:46.429Z,0.70
2022-09-09T02:08:58.861Z,1.00
2022-09-09T02:09:11.301Z,1.00
2022-09-09T02:09:22.062Z,0.80
2022-09-09T02:09:32.831Z,0.60
2022-09-09T02:09:44.571Z,0.70
2022-09-09T02:09:57.031Z,0.80
2022-09-09T02:10:09.752Z,0.70
2022-09-09T02:10:20.522Z,0.40
2022-09-09T02:10:32.992Z,0.40
2022-09-09T02:10:44.724Z,0.40
2022-09-09T02:10:57.152Z,0.60
2022-09-09T02:11:07.964Z,0.60
2022-09-09T02:11:20.429Z,0.60
2022-09-09T02:11:32.322Z,0.60
2022-09-09T02:11:44.771Z,0.60
2022-09-09T02:11:57.193Z,0.60
2022-09-09T02:12:07.944Z,0.70
2022-09-09T02:12:20.143Z,0.70
2022-09-09T02:12:30.882Z,0.70
2022-09-09T02:12:43.304Z,0.80
2022-09-09T02:12:55.720Z,0.60
2022-09-09T02:13:06.454Z,0.60
2022-09-09T02:13:19.163Z,0.60
2022-09-09T02:13:31.413Z,0.50
2022-09-09T02:13:43.887Z,0.50
2022-09-09T02:13:54.604Z,0.60
2022-09-09T02:14:05.362Z,0.60
2022-09-09T02:14:18.580Z,0.70
2022-09-09T02:14:29.373Z,1.00
2022-09-09T02:14:41.083Z,1.00
2022-09-09T02:14:51.823Z,0.80
2022-09-09T02:15:04.542Z,0.60
2022-09-09T02:15:15.276Z,0.80
2022-09-09T02:15:27.513Z,1.00
2022-09-09T02:15:38.291Z,1.00
2022-09-09T02:15:49.043Z,0.80
2022-09-09T02:16:00.814Z,1.00
2022-09-09T02:16:11.664Z,0.80
2022-09-09T02:16:22.499Z,1.00
2022-09-09T02:16:34.752Z,0.80
2022-09-09T02:16:47.212Z,0.80
2022-09-09T02:16:58.974Z,0.70
2022-09-09T02:17:10.674Z,0.70
2022-09-09T02:17:23.113Z,0.80
2022-09-09T02:17:35.557Z,0.80
2022-09-09T02:17:47.284Z,0.70
2022-09-09T02:17:58.985Z,0.60
2022-09-09T02:18:11.434Z,0.60
2022-09-09T02:18:22.194Z,0.70
2022-09-09T02:18:34.043Z,0.60
2022-09-09T02:18:44.866Z,0.70
2022-09-09T02:18:57.354Z,0.80
2022-09-09T02:19:09.773Z,0.90
2022-09-09T02:19:20.535Z,0.80
2022-09-09T02:19:33.235Z,0.70
2022-09-09T02:19:44.974Z,0.60
2022-09-09T02:19:55.715Z,1.00
2022-09-09T02:20:06.475Z,1.10
2022-09-09T02:20:19.165Z,1.20
2022-09-09T02:20:35.076Z,0.90
2022-09-09T02:20:47.685Z,0.60
2022-09-09T02:20:59.396Z,0.80
2022-09-09T02:21:12.605Z,1.00
2022-09-09T02:21:23.384Z,0.90
2022-09-09T02:21:34.135Z,0.60
2022-09-09T02:21:45.855Z,0.60
2022-09-09T02:21:58.315Z,0.60
2022-09-09T02:22:09.185Z,0.70
2022-09-09T02:22:21.165Z,0.70
2022-09-09T02:22:31.945Z,0.70
2022-09-09T02:22:43.667Z,0.50
2022-09-09T02:22:54.484Z,0.70
2022-09-09T02:23:05.277Z,0.80
2022-09-09T02:23:16.141Z,0.70
2022-09-09T02:23:26.880Z,0.60
2022-09-09T02:23:38.637Z,0.60
2022-09-09T02:23:50.876Z,0.60
2022-09-09T02:24:04.055Z,0.80
2022-09-09T02:24:14.836Z,0.80
2022-09-09T02:24:27.306Z,0.80
2022-09-09T02:24:39.006Z,0.80
2022-09-09T02:24:50.978Z,0.70
2022-09-09T02:25:01.736Z,0.70
2022-09-09T02:25:12.535Z,0.50
2022-09-09T02:25:23.297Z,0.40
2022-09-09T02:25:34.989Z,0.50
2022-09-09T02:25:45.745Z,0.60
2022-09-09T02:25:58.247Z,0.70
2022-09-09T02:26:09.946Z,0.80
2022-09-09T02:26:20.716Z,0.80
2022-09-09T02:26:32.437Z,0.90
2022-09-09T02:26:43.187Z,0.70
2022-09-09T02:26:53.936Z,0.60
2022-09-09T02:27:04.727Z,0.60
2022-09-09T02:27:17.187Z,0.70
2022-09-09T02:27:29.387Z,0.60
2022-09-09T02:27:41.350Z,0.60
2022-09-09T02:27:53.057Z,0.60
2022-09-09T02:28:03.787Z,0.60
2022-09-09T02:28:16.019Z,0.60
2022-09-09T02:28:26.788Z,0.70
2022-09-09T02:28:38.509Z,0.70
2022-09-09T02:28:50.952Z,0.60
2022-09-09T02:29:03.158Z,0.60
2022-09-09T02:29:17.377Z,0.60
2022-09-09T02:29:29.140Z,0.60
2022-09-09T02:29:41.368Z,0.70
2022-09-09T02:29:53.572Z,0.70
2022-09-09T02:30:05.990Z,0.70
2022-09-09T02:30:18.262Z,0.60
2022-09-09T02:30:30.071Z,0.70
2022-09-09T02:30:42.533Z,0.60
2022-09-09T02:30:54.320Z,0.70
2022-09-09T02:31:06.841Z,0.80
2022-09-09T02:31:19.299Z,0.80
2022-09-09T02:31:30.049Z,0.70
2022-09-09T02:31:42.269Z,0.60
2022-09-09T02:31:53.020Z,0.70
2022-09-09T02:32:03.804Z,0.70
2022-09-09T02:32:16.510Z,0.70
2022-09-09T02:32:29.223Z,0.70
2022-09-09T02:32:41.040Z,0.80
2022-09-09T02:32:51.851Z,0.90
2022-09-09T02:33:02.598Z,0.80
2022-09-09T02:33:14.319Z,0.70
2022-09-09T02:33:25.119Z,0.60
2022-09-09T02:33:35.874Z,0.50
2022-09-09T02:33:46.600Z,0.50
2022-09-09T02:33:59.040Z,0.50
2022-09-09T02:34:12.008Z,0.70
2022-09-09T02:34:22.855Z,0.90
2022-09-09T02:34:35.300Z,1.00